sensor_id;sensor_type;location;lat;lon;timestamp;temperature;humidity
74511;DHT22;62991;50.040;18.400;2023-04-24T00:02:30;17.60;43.50
74511;DHT22;62991;50.040;18.400;2023-04-24T00:05:30;17.60;44.20
74511;DHT22;62991;50.040;18.400;2023-04-24T00:08:31;17.60;43.60
74511;DHT22;62991;50.040;18.400;2023-04-24T00:11:32;17.60;43.50
74511;DHT22;62991;50.040;18.400;2023-04-24T00:14:32;17.60;43.40
74511;DHT22;62991;50.040;18.400;2023-04-24T00:17:33;17.50;43.60
74511;DHT22;62991;50.040;18.400;2023-04-24T00:20:34;17.40;43.50
74511;DHT22;62991;50.040;18.400;2023-04-24T00:23:36;17.40;43.50
74511;DHT22;62991;50.040;18.400;2023-04-24T00:26:36;17.60;43.40
74511;DHT22;62991;50.040;18.400;2023-04-24T00:29:37;17.60;42.90
74511;DHT22;62991;50.040;18.400;2023-04-24T00:32:38;17.50;43.30
74511;DHT22;62991;50.040;18.400;2023-04-24T00:35:38;17.50;42.50
74511;DHT22;62991;50.040;18.400;2023-04-24T00:38:39;17.40;42.60
74511;DHT22;62991;50.040;18.400;2023-04-24T00:41:40;17.40;43.70
74511;DHT22;62991;50.040;18.400;2023-04-24T00:44:40;17.60;42.40
74511;DHT22;62991;50.040;18.400;2023-04-24T00:47:41;17.50;42.00
74511;DHT22;62991;50.040;18.400;2023-04-24T00:50:42;17.50;42.50
74511;DHT22;62991;50.040;18.400;2023-04-24T00:53:43;17.50;42.10
74511;DHT22;62991;50.040;18.400;2023-04-24T00:56:44;17.50;41.40
74511;DHT22;62991;50.040;18.400;2023-04-24T00:59:46;17.60;42.20
74511;DHT22;62991;50.040;18.400;2023-04-24T01:02:47;17.70;41.50
74511;DHT22;62991;50.040;18.400;2023-04-24T01:05:49;17.70;41.50
74511;DHT22;62991;50.040;18.400;2023-04-24T01:08:50;17.60;41.50
74511;DHT22;62991;50.040;18.400;2023-04-24T01:11:50;17.50;41.90
74511;DHT22;62991;50.040;18.400;2023-04-24T01:14:51;17.50;40.80
74511;DHT22;62991;50.040;18.400;2023-04-24T01:17:52;17.40;41.40
74511;DHT22;62991;50.040;18.400;2023-04-24T01:21:03;17.60;41.50
74511;DHT22;62991;50.040;18.400;2023-04-24T01:24:05;17.60;41.00
74511;DHT22;62991;50.040;18.400;2023-04-24T01:27:07;17.60;41.00
74511;DHT22;62991;50.040;18.400;2023-04-24T01:30:09;17.70;40.60
74511;DHT22;62991;50.040;18.400;2023-04-24T01:33:09;17.60;41.30
74511;DHT22;62991;50.040;18.400;2023-04-24T01:36:11;17.60;40.70
74511;DHT22;62991;50.040;18.400;2023-04-24T01:39:12;17.70;40.40
74511;DHT22;62991;50.040;18.400;2023-04-24T01:42:13;17.60;41.20
74511;DHT22;62991;50.040;18.400;2023-04-24T01:45:15;17.50;40.60
74511;DHT22;62991;50.040;18.400;2023-04-24T01:48:16;17.60;41.10
74511;DHT22;62991;50.040;18.400;2023-04-24T01:51:16;17.50;40.70
74511;DHT22;62991;50.040;18.400;2023-04-24T01:54:17;17.40;40.70
74511;DHT22;62991;50.040;18.400;2023-04-24T01:57:18;17.50;41.60
74511;DHT22;62991;50.040;18.400;2023-04-24T02:00:19;17.50;41.10
74511;DHT22;62991;50.040;18.400;2023-04-24T02:03:19;17.50;41.70
74511;DHT22;62991;50.040;18.400;2023-04-24T02:06:20;17.60;41.50
74511;DHT22;62991;50.040;18.400;2023-04-24T02:09:21;17.60;40.60
74511;DHT22;62991;50.040;18.400;2023-04-24T02:12:21;17.70;41.60
74511;DHT22;62991;50.040;18.400;2023-04-24T02:15:22;17.80;41.30
74511;DHT22;62991;50.040;18.400;2023-04-24T02:18:23;17.70;41.00
74511;DHT22;62991;50.040;18.400;2023-04-24T02:21:23;17.80;40.50
74511;DHT22;62991;50.040;18.400;2023-04-24T02:24:24;17.70;40.90
74511;DHT22;62991;50.040;18.400;2023-04-24T02:27:25;17.90;41.30
74511;DHT22;62991;50.040;18.400;2023-04-24T02:30:25;18.00;41.60
74511;DHT22;62991;50.040;18.400;2023-04-24T02:33:26;18.00;40.20
74511;DHT22;62991;50.040;18.400;2023-04-24T02:36:27;18.10;40.60
74511;DHT22;62991;50.040;18.400;2023-04-24T02:39:27;18.10;40.40
74511;DHT22;62991;50.040;18.400;2023-04-24T02:42:28;17.90;40.00
74511;DHT22;62991;50.040;18.400;2023-04-24T02:45:29;17.90;40.80
74511;DHT22;62991;50.040;18.400;2023-04-24T02:48:30;18.00;41.00
74511;DHT22;62991;50.040;18.400;2023-04-24T02:51:30;18.00;40.70
74511;DHT22;62991;50.040;18.400;2023-04-24T02:54:31;18.00;40.80
74511;DHT22;62991;50.040;18.400;2023-04-24T02:57:32;18.00;40.70
74511;DHT22;62991;50.040;18.400;2023-04-24T03:00:32;18.00;40.80
74511;DHT22;62991;50.040;18.400;2023-04-24T03:03:33;18.00;41.00
74511;DHT22;62991;50.040;18.400;2023-04-24T03:06:34;18.00;41.30
74511;DHT22;62991;50.040;18.400;2023-04-24T03:09:35;17.90;41.60
74511;DHT22;62991;50.040;18.400;2023-04-24T03:12:36;18.00;41.90
74511;DHT22;62991;50.040;18.400;2023-04-24T03:15:37;17.90;41.60
74511;DHT22;62991;50.040;18.400;2023-04-24T03:18:37;17.70;41.70
74511;DHT22;62991;50.040;18.400;2023-04-24T03:21:39;17.70;41.80
74511;DHT22;62991;50.040;18.400;2023-04-24T03:24:41;17.50;41.80
74511;DHT22;62991;50.040;18.400;2023-04-24T03:27:41;17.30;42.50
74511;DHT22;62991;50.040;18.400;2023-04-24T03:30:42;17.50;42.70
74511;DHT22;62991;50.040;18.400;2023-04-24T03:33:43;17.50;42.50
74511;DHT22;62991;50.040;18.400;2023-04-24T03:36:43;17.50;42.30
74511;DHT22;62991;50.040;18.400;2023-04-24T03:39:44;17.30;42.20
74511;DHT22;62991;50.040;18.400;2023-04-24T03:42:45;17.20;42.40
74511;DHT22;62991;50.040;18.400;2023-04-24T03:45:45;17.10;42.40
74511;DHT22;62991;50.040;18.400;2023-04-24T03:48:46;17.20;42.70
74511;DHT22;62991;50.040;18.400;2023-04-24T03:51:47;17.30;42.20
74511;DHT22;62991;50.040;18.400;2023-04-24T03:54:47;17.50;42.40
74511;DHT22;62991;50.040;18.400;2023-04-24T03:57:48;17.60;42.50
74511;DHT22;62991;50.040;18.400;2023-04-24T04:00:49;17.60;42.50
74511;DHT22;62991;50.040;18.400;2023-04-24T04:03:50;17.70;42.80
74511;DHT22;62991;50.040;18.400;2023-04-24T04:06:50;17.70;42.80
74511;DHT22;62991;50.040;18.400;2023-04-24T04:09:51;17.70;42.90
74511;DHT22;62991;50.040;18.400;2023-04-24T04:12:52;17.60;43.30
74511;DHT22;62991;50.040;18.400;2023-04-24T04:15:52;17.60;43.60
74511;DHT22;62991;50.040;18.400;2023-04-24T04:18:53;17.70;43.30
74511;DHT22;62991;50.040;18.400;2023-04-24T04:21:54;17.70;42.60
74511;DHT22;62991;50.040;18.400;2023-04-24T04:24:56;17.80;42.40
74511;DHT22;62991;50.040;18.400;2023-04-24T04:27:57;17.80;42.30
74511;DHT22;62991;50.040;18.400;2023-04-24T04:30:59;17.70;42.40
74511;DHT22;62991;50.040;18.400;2023-04-24T04:34:01;17.70;42.40
74511;DHT22;62991;50.040;18.400;2023-04-24T04:37:01;17.70;41.20
74511;DHT22;62991;50.040;18.400;2023-04-24T04:40:03;17.80;42.10
74511;DHT22;62991;50.040;18.400;2023-04-24T04:43:06;17.60;42.00
74511;DHT22;62991;50.040;18.400;2023-04-24T04:46:07;17.60;41.00
74511;DHT22;62991;50.040;18.400;2023-04-24T04:49:08;17.60;41.00
74511;DHT22;62991;50.040;18.400;2023-04-24T04:52:09;17.60;42.10
74511;DHT22;62991;50.040;18.400;2023-04-24T04:55:10;17.80;41.90
74511;DHT22;62991;50.040;18.400;2023-04-24T04:58:14;17.80;41.70
74511;DHT22;62991;50.040;18.400;2023-04-24T05:01:14;17.80;41.90
74511;DHT22;62991;50.040;18.400;2023-04-24T05:04:15;18.00;41.70
74511;DHT22;62991;50.040;18.400;2023-04-24T05:07:16;18.10;41.70
74511;DHT22;62991;50.040;18.400;2023-04-24T05:10:16;18.10;41.60
74511;DHT22;62991;50.040;18.400;2023-04-24T05:13:17;18.10;42.20
74511;DHT22;62991;50.040;18.400;2023-04-24T05:16:18;18.10;42.50
74511;DHT22;62991;50.040;18.400;2023-04-24T05:19:18;18.20;42.20
74511;DHT22;62991;50.040;18.400;2023-04-24T05:22:19;18.20;42.40
74511;DHT22;62991;50.040;18.400;2023-04-24T05:25:21;18.40;42.60
74511;DHT22;62991;50.040;18.400;2023-04-24T05:28:21;18.30;42.20
74511;DHT22;62991;50.040;18.400;2023-04-24T05:31:22;18.20;43.10
74511;DHT22;62991;50.040;18.400;2023-04-24T05:34:23;18.30;43.20
74511;DHT22;62991;50.040;18.400;2023-04-24T05:37:24;18.40;43.50
74511;DHT22;62991;50.040;18.400;2023-04-24T05:40:25;18.40;43.30
74511;DHT22;62991;50.040;18.400;2023-04-24T05:43:26;18.50;43.00
74511;DHT22;62991;50.040;18.400;2023-04-24T05:46:26;18.60;42.70
74511;DHT22;62991;50.040;18.400;2023-04-24T05:49:27;18.50;42.40
74511;DHT22;62991;50.040;18.400;2023-04-24T05:52:28;18.50;41.90
74511;DHT22;62991;50.040;18.400;2023-04-24T05:55:30;18.40;43.20
74511;DHT22;62991;50.040;18.400;2023-04-24T05:58:30;18.40;42.30
74511;DHT22;62991;50.040;18.400;2023-04-24T06:01:31;18.40;42.80
74511;DHT22;62991;50.040;18.400;2023-04-24T06:04:33;18.60;42.00
74511;DHT22;62991;50.040;18.400;2023-04-24T06:07:34;18.40;41.50
74511;DHT22;62991;50.040;18.400;2023-04-24T06:10:35;18.50;41.40
74511;DHT22;62991;50.040;18.400;2023-04-24T06:13:35;18.50;42.00
74511;DHT22;62991;50.040;18.400;2023-04-24T06:16:36;18.60;41.50
74511;DHT22;62991;50.040;18.400;2023-04-24T06:19:37;18.90;42.10
74511;DHT22;62991;50.040;18.400;2023-04-24T06:22:37;19.00;41.00
74511;DHT22;62991;50.040;18.400;2023-04-24T06:25:40;18.90;40.80
74511;DHT22;62991;50.040;18.400;2023-04-24T06:28:41;18.80;40.70
74511;DHT22;62991;50.040;18.400;2023-04-24T06:31:42;18.80;41.30
74511;DHT22;62991;50.040;18.400;2023-04-24T06:34:42;18.80;40.50
74511;DHT22;62991;50.040;18.400;2023-04-24T06:37:43;18.90;40.70
74511;DHT22;62991;50.040;18.400;2023-04-24T06:40:44;19.00;40.20
74511;DHT22;62991;50.040;18.400;2023-04-24T06:43:45;19.00;40.50
74511;DHT22;62991;50.040;18.400;2023-04-24T06:46:45;19.00;40.20
74511;DHT22;62991;50.040;18.400;2023-04-24T06:49:46;19.20;39.90
74511;DHT22;62991;50.040;18.400;2023-04-24T06:52:47;19.30;40.00
74511;DHT22;62991;50.040;18.400;2023-04-24T06:55:48;19.40;40.30
74511;DHT22;62991;50.040;18.400;2023-04-24T06:58:49;19.50;39.50
74511;DHT22;62991;50.040;18.400;2023-04-24T07:01:49;19.60;38.90
74511;DHT22;62991;50.040;18.400;2023-04-24T07:04:51;19.50;39.10
74511;DHT22;62991;50.040;18.400;2023-04-24T07:07:53;19.50;39.30
74511;DHT22;62991;50.040;18.400;2023-04-24T07:10:53;19.70;39.80
74511;DHT22;62991;50.040;18.400;2023-04-24T07:13:55;19.90;39.80
74511;DHT22;62991;50.040;18.400;2023-04-24T07:16:56;20.00;39.50
74511;DHT22;62991;50.040;18.400;2023-04-24T07:19:57;20.10;39.70
74511;DHT22;62991;50.040;18.400;2023-04-24T07:22:58;20.10;38.00
74511;DHT22;62991;50.040;18.400;2023-04-24T07:25:58;20.10;38.60
74511;DHT22;62991;50.040;18.400;2023-04-24T07:28:59;20.10;39.10
74511;DHT22;62991;50.040;18.400;2023-04-24T07:32:00;20.10;38.20
74511;DHT22;62991;50.040;18.400;2023-04-24T07:35:01;20.30;37.70
74511;DHT22;62991;50.040;18.400;2023-04-24T07:38:01;20.40;38.80
74511;DHT22;62991;50.040;18.400;2023-04-24T07:41:02;20.40;38.10
74511;DHT22;62991;50.040;18.400;2023-04-24T07:44:03;20.60;38.70
74511;DHT22;62991;50.040;18.400;2023-04-24T07:47:03;20.70;37.80
74511;DHT22;62991;50.040;18.400;2023-04-24T07:50:05;20.80;37.10
74511;DHT22;62991;50.040;18.400;2023-04-24T07:53:06;20.80;36.60
74511;DHT22;62991;50.040;18.400;2023-04-24T07:56:06;20.80;37.20
74511;DHT22;62991;50.040;18.400;2023-04-24T07:59:07;21.00;37.60
74511;DHT22;62991;50.040;18.400;2023-04-24T08:02:08;21.00;36.70
74511;DHT22;62991;50.040;18.400;2023-04-24T08:05:10;21.30;37.40
74511;DHT22;62991;50.040;18.400;2023-04-24T08:08:10;21.40;36.00
74511;DHT22;62991;50.040;18.400;2023-04-24T08:11:11;21.30;35.80
74511;DHT22;62991;50.040;18.400;2023-04-24T08:14:12;21.20;36.40
74511;DHT22;62991;50.040;18.400;2023-04-24T08:17:13;21.20;36.00
74511;DHT22;62991;50.040;18.400;2023-04-24T08:20:14;21.40;36.20
74511;DHT22;62991;50.040;18.400;2023-04-24T08:23:15;21.20;36.20
74511;DHT22;62991;50.040;18.400;2023-04-24T08:26:16;21.10;36.00
74511;DHT22;62991;50.040;18.400;2023-04-24T08:29:17;21.10;35.90
74511;DHT22;62991;50.040;18.400;2023-04-24T08:32:18;21.40;36.40
74511;DHT22;62991;50.040;18.400;2023-04-24T08:35:18;21.40;36.50
74511;DHT22;62991;50.040;18.400;2023-04-24T08:38:19;21.30;36.60
74511;DHT22;62991;50.040;18.400;2023-04-24T08:41:20;21.20;36.20
74511;DHT22;62991;50.040;18.400;2023-04-24T08:44:23;21.00;36.70
74511;DHT22;62991;50.040;18.400;2023-04-24T08:47:24;21.10;36.40
74511;DHT22;62991;50.040;18.400;2023-04-24T08:50:26;21.10;37.20
74511;DHT22;62991;50.040;18.400;2023-04-24T08:53:26;20.80;36.70
74511;DHT22;62991;50.040;18.400;2023-04-24T08:56:28;20.60;36.90
74511;DHT22;62991;50.040;18.400;2023-04-24T08:59:30;20.50;36.90
74511;DHT22;62991;50.040;18.400;2023-04-24T09:02:31;20.40;37.10
74511;DHT22;62991;50.040;18.400;2023-04-24T09:05:32;20.30;38.10
74511;DHT22;62991;50.040;18.400;2023-04-24T09:08:34;20.20;37.90
74511;DHT22;62991;50.040;18.400;2023-04-24T09:11:36;20.30;37.70
74511;DHT22;62991;50.040;18.400;2023-04-24T09:14:37;20.30;38.00
74511;DHT22;62991;50.040;18.400;2023-04-24T09:17:43;20.10;38.40
74511;DHT22;62991;50.040;18.400;2023-04-24T09:21:03;20.10;38.60
74511;DHT22;62991;50.040;18.400;2023-04-24T09:24:06;20.20;39.30
74511;DHT22;62991;50.040;18.400;2023-04-24T09:27:07;20.10;39.60
74511;DHT22;62991;50.040;18.400;2023-04-24T09:30:11;20.40;39.40
74511;DHT22;62991;50.040;18.400;2023-04-24T09:33:15;20.10;39.20
74511;DHT22;62991;50.040;18.400;2023-04-24T09:36:17;19.90;39.40
74511;DHT22;62991;50.040;18.400;2023-04-24T09:39:19;19.70;40.50
74511;DHT22;62991;50.040;18.400;2023-04-24T09:42:25;19.70;41.30
74511;DHT22;62991;50.040;18.400;2023-04-24T09:45:36;19.60;41.50
74511;DHT22;62991;50.040;18.400;2023-04-24T09:48:37;19.10;42.30
74511;DHT22;62991;50.040;18.400;2023-04-24T09:51:38;19.00;42.20
74511;DHT22;62991;50.040;18.400;2023-04-24T09:54:39;19.10;42.40
74511;DHT22;62991;50.040;18.400;2023-04-24T09:57:51;18.80;42.70
74511;DHT22;62991;50.040;18.400;2023-04-24T10:00:56;18.60;43.50
74511;DHT22;62991;50.040;18.400;2023-04-24T10:03:57;18.80;44.00
74511;DHT22;62991;50.040;18.400;2023-04-24T10:06:58;18.80;43.30
74511;DHT22;62991;50.040;18.400;2023-04-24T10:09:59;18.80;43.70
74511;DHT22;62991;50.040;18.400;2023-04-24T10:13:00;18.60;44.00
74511;DHT22;62991;50.040;18.400;2023-04-24T10:16:02;18.50;43.90
74511;DHT22;62991;50.040;18.400;2023-04-24T10:19:03;18.50;44.40
74511;DHT22;62991;50.040;18.400;2023-04-24T10:22:04;18.60;44.80
74511;DHT22;62991;50.040;18.400;2023-04-24T10:25:06;18.30;44.70
74511;DHT22;62991;50.040;18.400;2023-04-24T10:28:08;18.20;45.00
74511;DHT22;62991;50.040;18.400;2023-04-24T10:31:10;18.40;45.60
74511;DHT22;62991;50.040;18.400;2023-04-24T10:34:12;18.40;45.10
74511;DHT22;62991;50.040;18.400;2023-04-24T10:37:13;18.40;44.80
74511;DHT22;62991;50.040;18.400;2023-04-24T10:40:19;18.50;45.50
74511;DHT22;62991;50.040;18.400;2023-04-24T10:43:24;18.50;45.60
74511;DHT22;62991;50.040;18.400;2023-04-24T10:46:30;18.60;45.70
74511;DHT22;62991;50.040;18.400;2023-04-24T10:49:31;18.70;46.50
74511;DHT22;62991;50.040;18.400;2023-04-24T10:52:45;18.80;46.40
74511;DHT22;62991;50.040;18.400;2023-04-24T10:55:49;18.90;47.50
74511;DHT22;62991;50.040;18.400;2023-04-24T10:58:51;18.80;47.10
74511;DHT22;62991;50.040;18.400;2023-04-24T11:01:54;19.00;47.40
74511;DHT22;62991;50.040;18.400;2023-04-24T11:04:57;19.00;47.80
74511;DHT22;62991;50.040;18.400;2023-04-24T11:08:13;19.10;47.90
74511;DHT22;62991;50.040;18.400;2023-04-24T11:11:16;19.20;47.10
74511;DHT22;62991;50.040;18.400;2023-04-24T11:14:17;19.00;46.30
74511;DHT22;62991;50.040;18.400;2023-04-24T11:17:47;18.80;46.10
74511;DHT22;62991;50.040;18.400;2023-04-24T11:20:47;18.60;45.60
74511;DHT22;62991;50.040;18.400;2023-04-24T11:23:48;18.50;46.00
74511;DHT22;62991;50.040;18.400;2023-04-24T11:26:51;18.50;46.90
74511;DHT22;62991;50.040;18.400;2023-04-24T11:33:04;18.30;47.20
74511;DHT22;62991;50.040;18.400;2023-04-24T11:36:05;18.10;47.70
74511;DHT22;62991;50.040;18.400;2023-04-24T11:39:06;18.00;47.80
74511;DHT22;62991;50.040;18.400;2023-04-24T11:42:12;18.00;47.50
74511;DHT22;62991;50.040;18.400;2023-04-24T11:45:16;17.90;48.10
74511;DHT22;62991;50.040;18.400;2023-04-24T11:48:20;18.00;48.50
74511;DHT22;62991;50.040;18.400;2023-04-24T11:51:22;17.90;49.20
74511;DHT22;62991;50.040;18.400;2023-04-24T11:54:24;17.90;49.70
74511;DHT22;62991;50.040;18.400;2023-04-24T11:57:25;18.00;49.80
74511;DHT22;62991;50.040;18.400;2023-04-24T12:00:31;18.10;49.70
74511;DHT22;62991;50.040;18.400;2023-04-24T12:03:34;18.20;50.40
74511;DHT22;62991;50.040;18.400;2023-04-24T12:06:35;18.20;50.70
74511;DHT22;62991;50.040;18.400;2023-04-24T12:09:56;18.30;51.10
74511;DHT22;62991;50.040;18.400;2023-04-24T12:12:58;18.50;50.30
74511;DHT22;62991;50.040;18.400;2023-04-24T12:16:00;18.60;50.00
74511;DHT22;62991;50.040;18.400;2023-04-24T12:19:02;18.50;50.20
74511;DHT22;62991;50.040;18.400;2023-04-24T12:22:04;18.40;50.10
74511;DHT22;62991;50.040;18.400;2023-04-24T12:25:05;18.30;49.80
74511;DHT22;62991;50.040;18.400;2023-04-24T12:31:08;17.80;49.60
74511;DHT22;62991;50.040;18.400;2023-04-24T12:34:26;17.50;50.90
74511;DHT22;62991;50.040;18.400;2023-04-24T12:37:32;17.10;52.00
74511;DHT22;62991;50.040;18.400;2023-04-24T12:40:33;16.90;52.50
74511;DHT22;62991;50.040;18.400;2023-04-24T12:43:35;17.00;53.50
74511;DHT22;62991;50.040;18.400;2023-04-24T12:46:35;16.90;53.90
74511;DHT22;62991;50.040;18.400;2023-04-24T12:49:36;16.80;54.40
74511;DHT22;62991;50.040;18.400;2023-04-24T12:52:37;16.60;55.40
74511;DHT22;62991;50.040;18.400;2023-04-24T12:55:39;16.60;55.90
74511;DHT22;62991;50.040;18.400;2023-04-24T12:58:40;16.50;55.90
74511;DHT22;62991;50.040;18.400;2023-04-24T13:01:41;16.40;57.10
74511;DHT22;62991;50.040;18.400;2023-04-24T13:04:42;16.40;57.20
74511;DHT22;62991;50.040;18.400;2023-04-24T13:07:42;16.40;57.90
74511;DHT22;62991;50.040;18.400;2023-04-24T13:10:43;16.50;58.00
74511;DHT22;62991;50.040;18.400;2023-04-24T13:13:44;16.30;57.40
74511;DHT22;62991;50.040;18.400;2023-04-24T13:16:44;16.10;57.30
74511;DHT22;62991;50.040;18.400;2023-04-24T13:19:45;16.00;57.00
74511;DHT22;62991;50.040;18.400;2023-04-24T13:22:46;16.00;56.90
74511;DHT22;62991;50.040;18.400;2023-04-24T13:25:46;16.00;57.70
74511;DHT22;62991;50.040;18.400;2023-04-24T13:28:48;16.00;57.70
74511;DHT22;62991;50.040;18.400;2023-04-24T13:31:50;16.00;58.00
74511;DHT22;62991;50.040;18.400;2023-04-24T13:34:51;16.00;58.10
74511;DHT22;62991;50.040;18.400;2023-04-24T13:37:52;16.00;58.50
74511;DHT22;62991;50.040;18.400;2023-04-24T13:40:53;16.00;58.30
74511;DHT22;62991;50.040;18.400;2023-04-24T13:43:53;16.00;58.50
74511;DHT22;62991;50.040;18.400;2023-04-24T13:46:55;16.00;58.60
74511;DHT22;62991;50.040;18.400;2023-04-24T13:49:57;16.00;59.50
74511;DHT22;62991;50.040;18.400;2023-04-24T13:52:57;15.90;59.40
74511;DHT22;62991;50.040;18.400;2023-04-24T13:56:00;16.00;58.80
74511;DHT22;62991;50.040;18.400;2023-04-24T13:59:01;16.00;58.70
74511;DHT22;62991;50.040;18.400;2023-04-24T14:02:01;15.90;59.10
74511;DHT22;62991;50.040;18.400;2023-04-24T14:05:02;16.00;58.60
74511;DHT22;62991;50.040;18.400;2023-04-24T14:08:04;15.90;59.40
74511;DHT22;62991;50.040;18.400;2023-04-24T14:11:04;15.90;59.60
74511;DHT22;62991;50.040;18.400;2023-04-24T14:14:05;15.90;59.20
74511;DHT22;62991;50.040;18.400;2023-04-24T14:17:06;15.90;59.50
74511;DHT22;62991;50.040;18.400;2023-04-24T14:20:07;15.70;60.20
74511;DHT22;62991;50.040;18.400;2023-04-24T14:23:09;15.60;60.00
74511;DHT22;62991;50.040;18.400;2023-04-24T14:26:10;15.50;60.70
74511;DHT22;62991;50.040;18.400;2023-04-24T14:29:10;15.80;60.60
74511;DHT22;62991;50.040;18.400;2023-04-24T14:32:11;16.00;59.90
74511;DHT22;62991;50.040;18.400;2023-04-24T14:35:12;16.00;59.90
74511;DHT22;62991;50.040;18.400;2023-04-24T14:38:12;15.90;60.30
74511;DHT22;62991;50.040;18.400;2023-04-24T14:41:13;15.80;60.50
74511;DHT22;62991;50.040;18.400;2023-04-24T14:44:14;15.90;60.60
74511;DHT22;62991;50.040;18.400;2023-04-24T14:47:15;16.20;59.80
74511;DHT22;62991;50.040;18.400;2023-04-24T14:50:17;16.40;59.10
74511;DHT22;62991;50.040;18.400;2023-04-24T14:53:18;16.60;58.60
74511;DHT22;62991;50.040;18.400;2023-04-24T14:56:19;16.60;58.40
74511;DHT22;62991;50.040;18.400;2023-04-24T14:59:19;16.60;58.80
74511;DHT22;62991;50.040;18.400;2023-04-24T15:02:20;16.50;58.80
74511;DHT22;62991;50.040;18.400;2023-04-24T15:05:21;16.60;58.80
74511;DHT22;62991;50.040;18.400;2023-04-24T15:08:22;16.80;58.00
74511;DHT22;62991;50.040;18.400;2023-04-24T15:11:23;16.80;58.00
74511;DHT22;62991;50.040;18.400;2023-04-24T15:14:23;16.90;57.70
74511;DHT22;62991;50.040;18.400;2023-04-24T15:17:24;17.10;57.20
74511;DHT22;62991;50.040;18.400;2023-04-24T15:20:25;17.20;57.00
74511;DHT22;62991;50.040;18.400;2023-04-24T15:23:26;17.30;56.70
74511;DHT22;62991;50.040;18.400;2023-04-24T15:26:26;17.20;56.70
74511;DHT22;62991;50.040;18.400;2023-04-24T15:29:28;17.40;56.10
74511;DHT22;62991;50.040;18.400;2023-04-24T15:32:28;17.50;55.70
74511;DHT22;62991;50.040;18.400;2023-04-24T15:35:29;17.50;55.60
74511;DHT22;62991;50.040;18.400;2023-04-24T15:38:30;17.40;55.70
74511;DHT22;62991;50.040;18.400;2023-04-24T15:41:31;17.30;56.00
74511;DHT22;62991;50.040;18.400;2023-04-24T15:44:32;17.30;56.20
74511;DHT22;62991;50.040;18.400;2023-04-24T15:47:33;17.10;56.20
74511;DHT22;62991;50.040;18.400;2023-04-24T15:50:33;17.00;56.50
74511;DHT22;62991;50.040;18.400;2023-04-24T15:53:34;17.10;56.40
74511;DHT22;62991;50.040;18.400;2023-04-24T15:56:35;17.30;56.40
74511;DHT22;62991;50.040;18.400;2023-04-24T15:59:36;17.00;56.60
74511;DHT22;62991;50.040;18.400;2023-04-24T16:02:37;16.80;57.20
74511;DHT22;62991;50.040;18.400;2023-04-24T16:05:38;16.70;57.50
74511;DHT22;62991;50.040;18.400;2023-04-24T16:08:39;16.50;58.00
74511;DHT22;62991;50.040;18.400;2023-04-24T16:11:39;16.50;57.90
74511;DHT22;62991;50.040;18.400;2023-04-24T16:14:41;16.40;58.00
74511;DHT22;62991;50.040;18.400;2023-04-24T16:17:41;16.10;58.70
74511;DHT22;62991;50.040;18.400;2023-04-24T16:20:42;16.00;59.10
74511;DHT22;62991;50.040;18.400;2023-04-24T16:23:43;16.00;58.90
74511;DHT22;62991;50.040;18.400;2023-04-24T16:26:43;16.00;59.30
74511;DHT22;62991;50.040;18.400;2023-04-24T16:29:44;16.20;58.70
74511;DHT22;62991;50.040;18.400;2023-04-24T16:32:45;16.20;58.90
74511;DHT22;62991;50.040;18.400;2023-04-24T16:35:46;16.30;59.20
74511;DHT22;62991;50.040;18.400;2023-04-24T16:38:47;16.20;58.80
74511;DHT22;62991;50.040;18.400;2023-04-24T16:41:48;16.10;59.50
74511;DHT22;62991;50.040;18.400;2023-04-24T16:44:49;16.00;59.90
74511;DHT22;62991;50.040;18.400;2023-04-24T16:47:50;16.10;59.90
74511;DHT22;62991;50.040;18.400;2023-04-24T16:50:51;16.00;60.10
74511;DHT22;62991;50.040;18.400;2023-04-24T16:53:51;16.10;60.20
74511;DHT22;62991;50.040;18.400;2023-04-24T16:56:53;16.10;60.30
74511;DHT22;62991;50.040;18.400;2023-04-24T16:59:53;16.00;60.90
74511;DHT22;62991;50.040;18.400;2023-04-24T17:02:54;15.70;62.40
74511;DHT22;62991;50.040;18.400;2023-04-24T17:05:55;15.50;62.50
74511;DHT22;62991;50.040;18.400;2023-04-24T17:08:56;15.30;63.50
74511;DHT22;62991;50.040;18.400;2023-04-24T17:11:57;15.30;64.10
74511;DHT22;62991;50.040;18.400;2023-04-24T17:14:58;15.20;64.30
74511;DHT22;62991;50.040;18.400;2023-04-24T17:17:58;15.30;64.10
74511;DHT22;62991;50.040;18.400;2023-04-24T17:20:59;15.30;64.80
74511;DHT22;62991;50.040;18.400;2023-04-24T17:24:00;15.30;64.90
74511;DHT22;62991;50.040;18.400;2023-04-24T17:27:01;15.10;65.80
74511;DHT22;62991;50.040;18.400;2023-04-24T17:30:02;15.10;66.10
74511;DHT22;62991;50.040;18.400;2023-04-24T17:33:03;15.10;66.50
74511;DHT22;62991;50.040;18.400;2023-04-24T17:36:04;15.10;66.40
74511;DHT22;62991;50.040;18.400;2023-04-24T17:39:06;15.00;66.80
74511;DHT22;62991;50.040;18.400;2023-04-24T17:42:08;14.90;67.40
74511;DHT22;62991;50.040;18.400;2023-04-24T17:45:09;14.80;68.10
74511;DHT22;62991;50.040;18.400;2023-04-24T17:48:12;14.80;67.70
74511;DHT22;62991;50.040;18.400;2023-04-24T17:51:13;14.80;68.10
74511;DHT22;62991;50.040;18.400;2023-04-24T17:54:13;14.90;67.80
74511;DHT22;62991;50.040;18.400;2023-04-24T17:57:14;14.60;69.20
74511;DHT22;62991;50.040;18.400;2023-04-24T18:00:15;14.50;69.70
74511;DHT22;62991;50.040;18.400;2023-04-24T18:03:16;14.40;70.40
74511;DHT22;62991;50.040;18.400;2023-04-24T18:06:17;14.50;70.60
74511;DHT22;62991;50.040;18.400;2023-04-24T18:09:18;14.40;71.10
74511;DHT22;62991;50.040;18.400;2023-04-24T18:12:20;14.30;71.40
74511;DHT22;62991;50.040;18.400;2023-04-24T18:15:21;14.40;71.40
74511;DHT22;62991;50.040;18.400;2023-04-24T18:18:21;14.40;71.20
74511;DHT22;62991;50.040;18.400;2023-04-24T18:21:22;14.30;71.70
74511;DHT22;62991;50.040;18.400;2023-04-24T18:24:24;14.40;71.50
74511;DHT22;62991;50.040;18.400;2023-04-24T18:27:25;14.30;71.10
74511;DHT22;62991;50.040;18.400;2023-04-24T18:30:28;14.50;70.40
74511;DHT22;62991;50.040;18.400;2023-04-24T18:33:30;14.40;69.90
74511;DHT22;62991;50.040;18.400;2023-04-24T18:36:31;14.40;69.40
74511;DHT22;62991;50.040;18.400;2023-04-24T18:39:32;14.30;69.80
74511;DHT22;62991;50.040;18.400;2023-04-24T18:42:33;14.40;70.10
74511;DHT22;62991;50.040;18.400;2023-04-24T18:45:34;14.60;69.60
74511;DHT22;62991;50.040;18.400;2023-04-24T18:48:34;14.60;68.70
74511;DHT22;62991;50.040;18.400;2023-04-24T18:51:35;14.70;68.40
74511;DHT22;62991;50.040;18.400;2023-04-24T18:54:36;14.70;68.20